Time;durP1;ratioP1;P1;durP2;ratioP2;P2;SDS_P1;SDS_P2;PMS_P1;PMS_P2;Temp;Humidity;BMP_temperature;BMP_pressure;BME280_temperature;BME280_humidity;BME280_pressure;Samples;Min_cycle;Max_cycle;Signal;HPM_P1;HPM_P2
2024/01/29 00:01:11;;;;;;;3.70;3.40;;;-2.10;99.90;;;;;;5026709;28;20508;-37
2024/01/29 00:03:37;;;;;;;4.22;3.33;;;-2.20;99.90;;;;;;5027856;28;20034;-36
2024/01/29 00:06:03;;;;;;;4.13;3.72;;;-2.10;99.90;;;;;;5023781;28;20520;-40
2024/01/29 00:08:29;;;;;;;3.70;3.35;;;-2.20;99.90;;;;;;5020777;28;20036;-36
2024/01/29 00:10:54;;;;;;;7.65;4.90;;;-2.20;99.90;;;;;;5021647;28;20041;-34
2024/01/29 00:13:20;;;;;;;192.32;65.13;;;-2.30;99.90;;;;;;5021221;28;20025;-33
2024/01/29 00:15:46;;;;;;;113.45;43.88;;;-2.20;99.90;;;;;;5003698;28;20026;-33
2024/01/29 00:18:12;;;;;;;64.80;30.10;;;-2.30;99.90;;;;;;5006807;28;20028;-35
2024/01/29 00:20:38;;;;;;;10.90;8.20;;;-2.30;99.90;;;;;;5025563;28;20540;-33
2024/01/29 00:23:03;;;;;;;9.10;5.68;;;-2.20;99.90;;;;;;5021843;28;20081;-34
2024/01/29 00:25:29;;;;;;;4.00;3.63;;;-2.30;99.90;;;;;;5023806;28;20029;-33
2024/01/29 00:27:54;;;;;;;7.82;5.10;;;-2.30;99.90;;;;;;5021707;28;20103;-38
2024/01/29 00:30:20;;;;;;;6.05;4.43;;;-2.30;99.90;;;;;;5021721;28;20032;-34
2024/01/29 00:32:46;;;;;;;8.50;3.63;;;-2.30;99.90;;;;;;5024860;28;20669;-35
2024/01/29 00:35:12;;;;;;;4.15;3.83;;;-2.20;99.90;;;;;;5020418;28;20037;-37
2024/01/29 00:37:38;;;;;;;6.28;4.47;;;-2.30;99.90;;;;;;5022402;28;20025;-36
2024/01/29 00:40:04;;;;;;;4.35;3.85;;;-2.30;99.90;;;;;;5021410;28;20544;-40
2024/01/29 00:42:30;;;;;;;8.80;4.45;;;-2.30;99.90;;;;;;5020575;28;20045;-39
2024/01/29 00:44:56;;;;;;;4.38;3.60;;;-2.30;99.90;;;;;;5023313;28;20506;-36
2024/01/29 00:47:22;;;;;;;5.53;4.72;;;-2.40;99.90;;;;;;5020700;28;20032;-36
2024/01/29 00:49:48;;;;;;;4.75;3.60;;;-2.30;99.90;;;;;;5020786;28;20068;-41
2024/01/29 00:52:13;;;;;;;4.25;3.83;;;-2.40;99.90;;;;;;5019924;28;20029;-40
2024/01/29 00:54:40;;;;;;;5.55;4.00;;;-2.40;99.90;;;;;;5021854;28;20032;-38
2024/01/29 00:57:05;;;;;;;5.68;4.28;;;-2.50;99.90;;;;;;5020421;28;20472;-41
2024/01/29 00:59:31;;;;;;;8.75;4.15;;;-2.50;99.90;;;;;;5022809;28;20029;-37
2024/01/29 01:01:56;;;;;;;6.75;3.50;;;-2.50;99.90;;;;;;5024003;28;20582;-37
2024/01/29 01:04:22;;;;;;;5.18;4.40;;;-2.60;99.90;;;;;;5021590;28;20025;-39
2024/01/29 01:06:48;;;;;;;4.57;4.03;;;-2.50;99.90;;;;;;5019444;28;20585;-39
2024/01/29 01:09:14;;;;;;;3.72;3.17;;;-2.50;99.90;;;;;;5003120;28;20061;-41
2024/01/29 01:11:41;;;;;;;5.00;3.50;;;-2.60;99.90;;;;;;5019878;28;20057;-36
2024/01/29 01:14:06;;;;;;;5.32;3.35;;;-2.70;99.90;;;;;;5019208;28;20021;-40
2024/01/29 01:16:32;;;;;;;4.25;3.95;;;-2.80;99.90;;;;;;5021805;28;20414;-39
2024/01/29 01:18:58;;;;;;;3.28;3.03;;;-2.80;99.90;;;;;;5020165;28;20494;-36
2024/01/29 01:21:23;;;;;;;4.25;3.67;;;-2.70;99.90;;;;;;5007567;28;20021;-40
2024/01/29 01:23:49;;;;;;;4.72;4.05;;;-2.60;99.90;;;;;;5023320;28;20033;-40
2024/01/29 01:26:14;;;;;;;5.45;4.53;;;-2.60;99.90;;;;;;5026440;28;20029;-40
2024/01/29 01:28:40;;;;;;;4.50;4.00;;;-2.60;99.90;;;;;;5024153;28;20025;-39
2024/01/29 01:31:06;;;;;;;4.55;4.00;;;-2.70;99.90;;;;;;5020603;28;20123;-41
2024/01/29 01:33:31;;;;;;;5.70;3.92;;;-2.80;99.90;;;;;;5023434;28;20077;-40
2024/01/29 01:35:57;;;;;;;4.68;3.65;;;-2.70;99.90;;;;;;5023037;28;20025;-40
2024/01/29 01:38:22;;;;;;;4.28;2.92;;;-2.70;99.90;;;;;;5022750;28;20032;-41
2024/01/29 01:40:48;;;;;;;3.50;3.20;;;-2.70;99.90;;;;;;5023511;28;20103;-37
2024/01/29 01:43:18;;;;;;;6.60;4.68;;;-2.70;99.90;;;;;;5020748;28;20040;-41
2024/01/29 01:45:43;;;;;;;10.23;6.57;;;-2.60;99.90;;;;;;5020674;28;20085;-36
2024/01/29 01:48:10;;;;;;;3.67;3.38;;;-2.60;99.90;;;;;;5024301;28;20071;-37
2024/01/29 01:50:36;;;;;;;3.92;2.95;;;-2.60;99.90;;;;;;5022657;28;20029;-35
2024/01/29 01:53:02;;;;;;;4.03;3.70;;;-2.60;99.90;;;;;;5026566;28;20029;-32
2024/01/29 01:55:29;;;;;;;4.10;3.65;;;-2.60;99.90;;;;;;5024477;28;20471;-37
2024/01/29 01:57:57;;;;;;;3.63;3.30;;;-2.60;99.90;;;;;;5026181;28;20029;-35
2024/01/29 02:00:23;;;;;;;3.28;2.97;;;-2.60;99.90;;;;;;5026342;28;20182;-40
2024/01/29 02:02:48;;;;;;;7.35;3.72;;;-2.80;99.90;;;;;;5027032;28;20674;-40
2024/01/29 02:05:14;;;;;;;4.90;4.50;;;-2.80;99.90;;;;;;5025749;28;20067;-40
2024/01/29 02:07:40;;;;;;;5.82;3.97;;;-2.80;99.90;;;;;;5026285;28;20386;-41
2024/01/29 02:10:06;;;;;;;4.60;4.18;;;-2.80;99.90;;;;;;5025163;28;20382;-41
2024/01/29 02:12:32;;;;;;;3.20;2.88;;;-2.70;99.90;;;;;;5023257;28;20080;-41
2024/01/29 02:14:58;;;;;;;7.13;3.97;;;-2.70;99.90;;;;;;5027377;28;20376;-37
2024/01/29 02:17:23;;;;;;;4.50;3.08;;;-2.80;99.90;;;;;;5031434;28;20034;-38
2024/01/29 02:19:49;;;;;;;6.85;4.57;;;-2.80;99.90;;;;;;5024947;28;20022;-42
2024/01/29 02:22:15;;;;;;;15.25;4.60;;;-2.80;99.90;;;;;;5012798;28;20434;-42
2024/01/29 02:24:40;;;;;;;4.32;3.95;;;-2.70;99.90;;;;;;5030359;28;20104;-40
2024/01/29 02:27:07;;;;;;;7.75;3.90;;;-2.70;99.90;;;;;;5025673;28;20064;-41
2024/01/29 02:29:33;;;;;;;4.88;4.38;;;-2.70;99.90;;;;;;5027226;28;20498;-37
2024/01/29 02:31:58;;;;;;;4.75;3.90;;;-2.80;99.90;;;;;;5025705;28;20578;-38
2024/01/29 02:34:24;;;;;;;4.60;3.85;;;-2.80;99.90;;;;;;5032498;28;20033;-39
2024/01/29 02:36:49;;;;;;;3.85;3.55;;;-2.80;99.90;;;;;;5028195;28;20446;-39
2024/01/29 02:39:15;;;;;;;3.60;2.97;;;-2.80;99.90;;;;;;5023515;28;20034;-40
2024/01/29 02:41:41;;;;;;;4.10;3.70;;;-2.80;99.90;;;;;;5025491;28;20030;-41
2024/01/29 02:44:06;;;;;;;4.63;4.20;;;-2.90;99.90;;;;;;5025714;28;20126;-42
2024/01/29 02:46:32;;;;;;;3.67;3.35;;;-3.00;99.90;;;;;;5027679;28;20041;-41
2024/01/29 02:48:57;;;;;;;5.25;3.80;;;-3.00;99.90;;;;;;5027059;28;20037;-36
2024/01/29 02:51:23;;;;;;;3.22;2.97;;;-3.10;99.90;;;;;;5027577;28;20490;-40
2024/01/29 02:53:48;;;;;;;3.60;3.35;;;-3.10;99.90;;;;;;5028709;28;20040;-41
2024/01/29 02:56:14;;;;;;;4.15;3.65;;;-3.00;99.90;;;;;;5029366;28;20105;-41
2024/01/29 02:58:40;;;;;;;5.78;3.85;;;-2.90;99.90;;;;;;5030250;28;20065;-41
2024/01/29 03:01:05;;;;;;;4.53;3.85;;;-3.00;99.90;;;;;;5024803;28;20042;-33
2024/01/29 03:03:31;;;;;;;3.15;2.92;;;-3.00;99.90;;;;;;5025591;28;20454;-34
2024/01/29 03:05:56;;;;;;;3.50;3.25;;;-2.90;99.90;;;;;;5030836;28;20026;-37
2024/01/29 03:08:22;;;;;;;5.07;3.65;;;-2.90;99.90;;;;;;5025960;28;20043;-35
2024/01/29 03:10:47;;;;;;;12.10;4.25;;;-2.80;99.90;;;;;;5026713;28;20025;-40
2024/01/29 03:13:13;;;;;;;8.60;4.20;;;-2.80;99.90;;;;;;5024064;28;20479;-41
2024/01/29 03:15:39;;;;;;;3.05;2.83;;;-3.00;99.90;;;;;;5029748;28;20022;-40
2024/01/29 03:18:04;;;;;;;5.03;4.00;;;-3.00;99.90;;;;;;5025363;28;20392;-41
2024/01/29 03:20:30;;;;;;;3.03;2.47;;;-3.00;99.90;;;;;;5028746;28;20025;-41
2024/01/29 03:22:56;;;;;;;5.05;4.53;;;-3.00;99.90;;;;;;5026456;28;20111;-37
2024/01/29 03:25:21;;;;;;;6.07;4.05;;;-3.00;99.90;;;;;;5029420;28;20034;-39
2024/01/29 03:27:47;;;;;;;5.13;4.35;;;-3.00;99.90;;;;;;5020637;28;20704;-35
2024/01/29 03:30:13;;;;;;;5.03;3.33;;;-3.00;99.90;;;;;;5030184;28;20037;-41
2024/01/29 03:32:39;;;;;;;4.03;3.50;;;-3.20;99.90;;;;;;5025540;28;20045;-37
2024/01/29 03:35:04;;;;;;;4.35;3.85;;;-3.20;99.90;;;;;;5026275;28;20029;-34
2024/01/29 03:37:30;;;;;;;6.15;3.22;;;-3.30;99.90;;;;;;5025365;28;20494;-34
2024/01/29 03:39:55;;;;;;;2.85;2.65;;;-3.20;99.90;;;;;;5027695;28;20053;-38
2024/01/29 03:42:21;;;;;;;3.70;3.42;;;-3.30;99.90;;;;;;5025065;28;20433;-33
2024/01/29 03:44:46;;;;;;;3.92;3.45;;;-3.30;99.90;;;;;;5033129;28;20029;-34
2024/01/29 03:47:12;;;;;;;3.10;2.88;;;-3.30;99.90;;;;;;5021486;28;20072;-34
2024/01/29 03:49:38;;;;;;;4.88;3.50;;;-3.30;99.90;;;;;;5026220;28;20024;-36
2024/01/29 03:52:04;;;;;;;6.95;3.85;;;-3.30;99.90;;;;;;5024784;28;20033;-33
2024/01/29 03:54:29;;;;;;;4.93;3.25;;;-3.20;99.90;;;;;;5025406;28;20033;-35
2024/01/29 03:56:55;;;;;;;5.55;4.78;;;-3.30;99.90;;;;;;5026245;28;20025;-38
2024/01/29 03:59:20;;;;;;;5.03;4.63;;;-3.30;99.90;;;;;;5028584;28;20025;-34
2024/01/29 04:01:46;;;;;;;6.07;4.32;;;-3.20;99.90;;;;;;5023059;28;20757;-33
2024/01/29 04:04:12;;;;;;;13.40;3.78;;;-3.20;99.90;;;;;;5023280;28;20025;-37
2024/01/29 04:06:39;;;;;;;5.25;4.18;;;-3.10;99.90;;;;;;5006450;28;20033;-33
2024/01/29 04:09:06;;;;;;;7.13;4.35;;;-3.10;99.90;;;;;;5026529;28;20048;-33
2024/01/29 04:11:31;;;;;;;3.67;3.38;;;-3.30;99.90;;;;;;5035480;28;20029;-35
2024/01/29 04:13:57;;;;;;;3.50;3.17;;;-3.30;99.90;;;;;;5014071;28;20091;-36
2024/01/29 04:16:22;;;;;;;4.70;3.58;;;-3.20;99.90;;;;;;5024805;28;20041;-34
2024/01/29 04:18:48;;;;;;;6.28;4.93;;;-3.20;99.90;;;;;;5023752;28;20514;-33
2024/01/29 04:21:14;;;;;;;5.22;4.10;;;-3.20;99.90;;;;;;5021956;28;20120;-37
2024/01/29 04:23:39;;;;;;;3.90;3.10;;;-3.20;99.90;;;;;;5027682;28;20501;-40
2024/01/29 04:26:05;;;;;;;4.10;3.65;;;-3.20;99.90;;;;;;5025688;28;20562;-39
2024/01/29 04:28:30;;;;;;;3.38;3.00;;;-3.20;99.90;;;;;;5022930;28;20029;-39
2024/01/29 04:30:56;;;;;;;4.20;3.17;;;-3.20;99.90;;;;;;5022787;28;20037;-37
2024/01/29 04:33:22;;;;;;;4.13;3.63;;;-3.20;99.90;;;;;;5024513;28;20604;-41
2024/01/29 04:35:47;;;;;;;3.97;3.58;;;-3.20;99.90;;;;;;5025195;28;20379;-40
2024/01/29 04:38:13;;;;;;;3.25;3.03;;;-3.30;99.90;;;;;;5024628;28;20033;-40
2024/01/29 04:40:40;;;;;;;4.75;4.25;;;-3.40;99.90;;;;;;5026187;28;20135;-39
2024/01/29 04:43:06;;;;;;;4.10;3.67;;;-3.40;99.90;;;;;;5027781;28;20120;-40
2024/01/29 04:45:32;;;;;;;6.32;3.65;;;-3.40;99.90;;;;;;5025880;28;20590;-42
2024/01/29 04:47:57;;;;;;;5.18;4.50;;;-3.40;99.90;;;;;;5031610;28;20033;-36
2024/01/29 04:50:23;;;;;;;3.53;3.20;;;-3.40;99.90;;;;;;5024026;28;20029;-38
2024/01/29 04:52:49;;;;;;;6.70;3.78;;;-3.50;99.90;;;;;;5024273;28;20041;-41
2024/01/29 04:55:14;;;;;;;5.25;4.75;;;-3.50;99.90;;;;;;5021646;28;20034;-41
2024/01/29 04:57:41;;;;;;;5.22;3.88;;;-3.40;99.90;;;;;;5024960;28;20475;-41
2024/01/29 05:00:08;;;;;;;3.17;2.63;;;-3.50;99.90;;;;;;5024979;28;20044;-41
2024/01/29 05:02:35;;;;;;;6.22;4.10;;;-3.50;99.90;;;;;;5026717;28;20058;-40
2024/01/29 05:05:01;;;;;;;3.95;3.67;;;-3.50;99.90;;;;;;5019740;28;20779;-37
2024/01/29 05:07:26;;;;;;;4.70;3.90;;;-3.50;99.90;;;;;;5028362;28;20029;-41
2024/01/29 05:09:52;;;;;;;5.57;3.58;;;-3.40;99.90;;;;;;5025197;28;20034;-41
2024/01/29 05:12:18;;;;;;;5.20;4.35;;;-3.40;99.90;;;;;;5027542;28;20709;-43
2024/01/29 05:14:43;;;;;;;5.13;4.63;;;-3.30;99.90;;;;;;5023122;28;20644;-41
2024/01/29 05:17:09;;;;;;;5.13;4.38;;;-3.30;99.90;;;;;;5023127;28;20057;-41
2024/01/29 05:19:35;;;;;;;6.53;4.40;;;-3.30;99.90;;;;;;5025136;28;20017;-39
2024/01/29 05:22:01;;;;;;;4.80;3.20;;;-3.30;99.90;;;;;;5022887;28;20504;-39
2024/01/29 05:24:27;;;;;;;5.40;4.93;;;-3.30;99.90;;;;;;5006597;28;20036;-40
2024/01/29 05:26:53;;;;;;;11.50;5.88;;;-3.30;99.90;;;;;;5020529;28;20033;-42
2024/01/29 05:29:18;;;;;;;5.15;4.63;;;-3.30;99.90;;;;;;5026411;28;20536;-42
2024/01/29 05:31:44;;;;;;;8.82;4.72;;;-3.30;99.90;;;;;;5023940;28;20088;-41
2024/01/29 05:34:10;;;;;;;6.32;5.70;;;-3.30;99.90;;;;;;5031467;28;20041;-41
2024/01/29 05:36:35;;;;;;;7.93;5.93;;;-3.40;99.90;;;;;;5028032;28;20017;-40
2024/01/29 05:39:01;;;;;;;8.10;5.53;;;-3.40;99.90;;;;;;5024126;28;20029;-40
2024/01/29 05:41:26;;;;;;;4.90;4.40;;;-3.40;99.90;;;;;;5031422;28;20469;-42
2024/01/29 05:43:52;;;;;;;4.97;3.92;;;-3.40;99.90;;;;;;5028884;28;20037;-42
2024/01/29 05:46:17;;;;;;;3.70;3.38;;;-3.40;99.90;;;;;;5027129;28;20067;-42
2024/01/29 05:48:43;;;;;;;4.10;3.70;;;-3.40;99.90;;;;;;5027714;28;20499;-41
2024/01/29 05:51:08;;;;;;;6.15;4.45;;;-3.40;99.90;;;;;;5026412;28;20037;-37
2024/01/29 05:53:34;;;;;;;4.80;4.07;;;-3.40;99.90;;;;;;5030423;28;20501;-40
2024/01/29 05:56:02;;;;;;;7.50;4.57;;;-3.40;99.90;;;;;;5025249;28;20079;-40
2024/01/29 05:58:32;;;;;;;4.72;4.25;;;-3.40;99.90;;;;;;5026638;28;20100;-40
2024/01/29 06:00:59;;;;;;;6.40;3.30;;;-3.40;99.90;;;;;;5023964;28;20029;-40
2024/01/29 06:03:25;;;;;;;4.95;4.38;;;-3.40;99.90;;;;;;5026988;28;20602;-32
2024/01/29 06:05:51;;;;;;;5.70;5.18;;;-3.50;99.90;;;;;;5029116;28;20075;-32
2024/01/29 06:08:17;;;;;;;4.32;3.75;;;-3.50;99.90;;;;;;5007326;28;20452;-32
2024/01/29 06:10:42;;;;;;;4.10;3.80;;;-3.50;99.90;;;;;;5032803;28;20104;-34
2024/01/29 06:13:08;;;;;;;4.35;3.95;;;-3.60;99.90;;;;;;5026040;28;20109;-32
2024/01/29 06:15:34;;;;;;;5.22;4.75;;;-3.60;99.90;;;;;;5029684;28;20124;-32
2024/01/29 06:18:00;;;;;;;5.13;3.95;;;-3.60;99.90;;;;;;5024899;28;20125;-38
2024/01/29 06:20:25;;;;;;;4.97;4.50;;;-3.60;99.90;;;;;;5006631;28;20022;-31
2024/01/29 06:22:52;;;;;;;4.10;3.72;;;-3.60;99.90;;;;;;5040033;28;20029;-33
2024/01/29 06:25:19;;;;;;;5.25;3.75;;;-3.60;99.90;;;;;;5027336;28;20554;-36
2024/01/29 06:27:45;;;;;;;3.00;2.42;;;-3.60;99.90;;;;;;5028002;28;20421;-32
2024/01/29 06:30:12;;;;;;;4.55;3.75;;;-3.60;99.90;;;;;;5020642;28;20084;-34
2024/01/29 06:32:38;;;;;;;3.95;3.63;;;-3.60;99.90;;;;;;5023601;28;20051;-32
2024/01/29 06:35:04;;;;;;;3.72;3.30;;;-3.60;99.90;;;;;;5008671;28;20037;-34
2024/01/29 06:37:30;;;;;;;7.65;5.68;;;-3.60;99.90;;;;;;5028176;28;20021;-33
2024/01/29 06:39:55;;;;;;;4.55;4.25;;;-3.60;99.90;;;;;;5004849;28;20071;-37
2024/01/29 06:42:21;;;;;;;5.65;5.05;;;-3.50;99.90;;;;;;5024780;28;20560;-40
2024/01/29 06:44:47;;;;;;;4.28;3.65;;;-3.50;99.90;;;;;;5020741;28;20601;-39
2024/01/29 06:47:14;;;;;;;6.55;4.38;;;-3.50;99.90;;;;;;5024793;28;20033;-41
2024/01/29 06:49:40;;;;;;;4.33;4.03;;;-3.50;99.90;;;;;;5022210;28;20033;-39
2024/01/29 06:52:06;;;;;;;4.05;3.67;;;-3.50;99.90;;;;;;5024048;28;20052;-40
2024/01/29 06:54:31;;;;;;;4.18;3.88;;;-3.50;99.90;;;;;;5029954;28;20087;-40
2024/01/29 06:56:57;;;;;;;4.72;4.32;;;-3.60;99.90;;;;;;5022684;28;20081;-38
2024/01/29 06:59:25;;;;;;;4.00;3.70;;;-3.60;99.90;;;;;;5030044;28;20036;-39
2024/01/29 07:01:52;;;;;;;;;;;-3.50;99.90;;;;;;5023082;28;20309;-40
2024/01/29 07:04:18;;;;;;;5.72;5.10;;;-3.50;99.90;;;;;;5024188;28;20606;-39
2024/01/29 07:06:44;;;;;;;5.63;4.50;;;-3.50;99.90;;;;;;5024306;28;20034;-41
2024/01/29 07:09:09;;;;;;;5.22;4.75;;;-3.50;99.90;;;;;;5018591;28;20080;-39
2024/01/29 07:11:35;;;;;;;4.40;4.00;;;-3.50;99.90;;;;;;5024302;28;20068;-38
2024/01/29 07:14:01;;;;;;;3.80;3.50;;;-3.50;99.90;;;;;;5029227;28;20100;-41
2024/01/29 07:16:26;;;;;;;8.18;4.07;;;-3.50;99.90;;;;;;5029407;28;20029;-37
2024/01/29 07:18:52;;;;;;;3.85;3.58;;;-3.60;99.90;;;;;;5027267;28;20467;-41
2024/01/29 07:21:17;;;;;;;13.70;5.50;;;-3.60;99.90;;;;;;5026410;28;20068;-39
2024/01/29 07:23:43;;;;;;;5.43;4.07;;;-3.60;99.90;;;;;;5030176;28;20072;-40
2024/01/29 07:26:08;;;;;;;7.45;4.18;;;-3.60;99.90;;;;;;5029717;28;20037;-39
2024/01/29 07:28:34;;;;;;;3.72;3.40;;;-3.50;99.90;;;;;;5023541;28;20033;-41
2024/01/29 07:31:00;;;;;;;5.20;4.55;;;-3.50;99.90;;;;;;5028210;28;20614;-39
2024/01/29 07:33:25;;;;;;;6.70;5.00;;;-3.50;99.90;;;;;;5025448;28;20046;-38
2024/01/29 07:35:51;;;;;;;6.88;4.25;;;-3.50;99.90;;;;;;5023920;28;20033;-40
2024/01/29 07:38:16;;;;;;;4.20;3.90;;;-3.40;99.90;;;;;;5029108;28;20037;-39
2024/01/29 07:40:42;;;;;;;6.00;4.40;;;-3.50;99.90;;;;;;5019533;28;20026;-40
2024/01/29 07:43:08;;;;;;;7.75;5.43;;;-3.60;99.90;;;;;;5022442;28;20509;-40
2024/01/29 07:45:33;;;;;;;6.10;4.78;;;-3.50;99.90;;;;;;5029871;28;20057;-40
2024/01/29 07:48:00;;;;;;;4.55;4.22;;;-3.40;99.90;;;;;;5026106;28;20706;-38
2024/01/29 07:50:25;;;;;;;5.28;4.78;;;-3.40;99.90;;;;;;5024267;28;21421;-34
2024/01/29 07:52:51;;;;;;;7.57;4.72;;;-3.30;99.90;;;;;;5042203;28;20124;-33
2024/01/29 07:55:17;;;;;;;6.20;4.53;;;-3.30;99.90;;;;;;5033423;28;20079;-32
2024/01/29 07:57:43;;;;;;;8.80;5.80;;;-3.20;99.90;;;;;;5026824;28;20109;-32
2024/01/29 08:00:09;;;;;;;7.32;5.53;;;-3.20;99.90;;;;;;5020098;28;20105;-33
2024/01/29 08:02:35;;;;;;;8.02;4.97;;;-3.20;99.90;;;;;;5024836;28;20583;-32
2024/01/29 08:05:00;;;;;;;6.28;4.50;;;-3.20;99.90;;;;;;5028739;28;20108;-32
2024/01/29 08:07:26;;;;;;;6.45;5.15;;;-3.20;99.90;;;;;;5009457;28;20030;-32
2024/01/29 08:09:52;;;;;;;11.45;5.03;;;-3.20;99.90;;;;;;5023764;28;20025;-35
2024/01/29 08:12:19;;;;;;;5.55;5.13;;;-3.10;99.90;;;;;;5011445;28;20264;-32
2024/01/29 08:14:45;;;;;;;5.78;5.25;;;-3.10;99.90;;;;;;5003639;28;20045;-32
2024/01/29 08:17:11;;;;;;;6.72;5.45;;;-3.10;99.90;;;;;;5030671;28;20029;-35
2024/01/29 08:19:36;;;;;;;8.00;5.90;;;-3.10;99.90;;;;;;5010901;28;20116;-32
2024/01/29 08:22:03;;;;;;;5.43;4.95;;;-3.00;99.90;;;;;;5024849;28;20029;-32
2024/01/29 08:24:29;;;;;;;14.18;5.55;;;-2.90;99.90;;;;;;5010779;28;20498;-32
2024/01/29 08:26:54;;;;;;;5.85;4.72;;;-2.90;99.90;;;;;;5029093;28;20044;-35
2024/01/29 08:29:20;;;;;;;8.57;4.90;;;-2.80;99.90;;;;;;5030440;28;20032;-32
2024/01/29 08:31:46;;;;;;;5.70;4.90;;;-2.70;99.90;;;;;;5026891;28;20029;-36
2024/01/29 08:34:11;;;;;;;5.45;4.95;;;-2.70;99.90;;;;;;5026849;28;20123;-32
2024/01/29 08:36:37;;;;;;;9.85;5.45;;;-2.70;99.90;;;;;;5006357;28;20558;-31
2024/01/29 08:39:03;;;;;;;7.50;5.45;;;-2.60;99.90;;;;;;5024058;28;20043;-33
2024/01/29 08:41:28;;;;;;;5.68;4.25;;;-2.50;99.90;;;;;;5029698;28;20025;-32
2024/01/29 08:43:54;;;;;;;4.30;3.90;;;-2.50;99.90;;;;;;5026313;28;20091;-36
2024/01/29 08:46:20;;;;;;;3.35;3.10;;;-2.40;99.90;;;;;;5028326;28;20037;-32
2024/01/29 08:48:45;;;;;;;6.45;4.65;;;-2.30;99.90;;;;;;5011479;28;20463;-32
2024/01/29 08:51:11;;;;;;;5.65;4.80;;;-2.20;99.90;;;;;;5007776;28;20115;-38
2024/01/29 08:53:37;;;;;;;7.82;4.70;;;-2.20;99.90;;;;;;5018343;28;20057;-39
2024/01/29 08:56:06;;;;;;;5.35;4.85;;;-2.10;99.90;;;;;;5020837;28;20027;-39
2024/01/29 08:58:32;;;;;;;7.30;5.18;;;-2.10;99.90;;;;;;5024150;28;20063;-41
2024/01/29 09:00:58;;;;;;;8.50;4.65;;;-2.00;99.90;;;;;;5025004;28;20538;-36
2024/01/29 09:03:24;;;;;;;8.07;5.43;;;-1.80;99.90;;;;;;5024476;28;20045;-38
2024/01/29 09:05:50;;;;;;;7.18;5.47;;;-1.70;99.90;;;;;;5023499;28;20026;-39
2024/01/29 09:08:16;;;;;;;9.32;5.55;;;-1.60;99.90;;;;;;5025903;28;20037;-37
2024/01/29 09:10:42;;;;;;;6.47;4.85;;;-1.50;99.90;;;;;;5033179;28;20025;-41
2024/01/29 09:13:07;;;;;;;6.70;5.28;;;-1.30;99.90;;;;;;5027694;28;20049;-40
2024/01/29 09:15:33;;;;;;;8.75;5.38;;;-1.20;99.90;;;;;;5030668;28;20021;-39
2024/01/29 09:17:59;;;;;;;5.88;5.40;;;-1.10;99.90;;;;;;5029732;28;20057;-35
2024/01/29 09:20:27;;;;;;;6.57;5.40;;;-0.90;99.90;;;;;;5031347;28;20073;-39
2024/01/29 09:22:53;;;;;;;4.63;4.22;;;-0.80;99.90;;;;;;5027290;28;20040;-40
2024/01/29 09:25:19;;;;;;;7.38;4.97;;;-0.60;99.90;;;;;;5028636;28;20041;-41
2024/01/29 09:27:44;;;;;;;9.10;6.05;;;-0.50;99.90;;;;;;5026079;28;20789;-40
2024/01/29 09:30:10;;;;;;;6.43;5.82;;;-0.40;99.90;;;;;;5030582;28;20033;-39
2024/01/29 09:32:36;;;;;;;6.25;5.75;;;-0.20;99.90;;;;;;5028043;28;20058;-38
2024/01/29 09:35:01;;;;;;;5.60;4.95;;;-0.10;99.90;;;;;;5035527;28;20036;-39
2024/01/29 09:37:27;;;;;;;5.30;4.38;;;0.00;99.90;;;;;;5026382;28;20618;-39
2024/01/29 09:39:53;;;;;;;7.05;5.05;;;0.10;99.90;;;;;;5026184;28;20061;-39
2024/01/29 09:42:20;;;;;;;7.40;6.45;;;0.10;99.90;;;;;;5022057;28;20034;-38
2024/01/29 09:44:49;;;;;;;7.53;5.68;;;0.20;99.90;;;;;;5023600;28;20513;-40
2024/01/29 09:47:18;;;;;;;5.93;5.38;;;0.30;99.90;;;;;;5024952;28;20032;-40
2024/01/29 09:49:44;;;;;;;7.65;6.75;;;0.40;99.90;;;;;;5026125;28;20029;-36
2024/01/29 09:52:14;;;;;;;7.75;6.10;;;0.50;99.90;;;;;;5023780;28;20458;-40
2024/01/29 09:54:41;;;;;;;12.63;6.18;;;0.50;99.90;;;;;;5018122;28;20036;-38
2024/01/29 09:57:12;;;;;;;10.25;5.88;;;0.60;99.90;;;;;;5007877;28;20489;-38
2024/01/29 09:59:41;;;;;;;7.97;5.78;;;0.70;99.90;;;;;;5017923;28;20052;-40
2024/01/29 10:02:08;;;;;;;9.68;7.00;;;0.80;99.90;;;;;;5028135;28;20112;-38
2024/01/29 10:04:34;;;;;;;8.75;6.60;;;0.90;99.90;;;;;;5026373;28;20049;-40
2024/01/29 10:07:00;;;;;;;8.63;6.30;;;1.10;99.90;;;;;;5036243;28;20029;-40
2024/01/29 10:09:25;;;;;;;12.63;8.00;;;1.20;99.90;;;;;;5029589;28;20034;-37
2024/01/29 10:11:51;;;;;;;12.75;7.25;;;1.30;99.90;;;;;;5028420;28;20025;-32
2024/01/29 10:14:17;;;;;;;9.73;7.82;;;1.50;99.90;;;;;;5024097;28;20037;-32
2024/01/29 10:16:42;;;;;;;12.10;7.70;;;1.50;99.90;;;;;;5026368;28;20040;-32
2024/01/29 10:19:09;;;;;;;13.18;9.05;;;1.60;99.90;;;;;;5029645;28;20483;-32
2024/01/29 10:21:39;;;;;;;11.30;8.20;;;1.70;99.90;;;;;;5038883;28;20017;-33
2024/01/29 10:24:11;;;;;;;12.63;7.70;;;1.80;99.90;;;;;;5027715;28;20455;-33
2024/01/29 10:26:36;;;;;;;11.75;9.57;;;2.00;99.90;;;;;;5028590;28;20049;-36
2024/01/29 10:29:07;;;;;;;10.10;7.28;;;2.20;99.90;;;;;;5024679;28;20114;-33
2024/01/29 10:31:33;;;;;;;10.55;7.68;;;2.30;99.90;;;;;;5020716;28;20578;-32
2024/01/29 10:34:05;;;;;;;11.77;7.43;;;2.40;99.90;;;;;;5030011;28;20049;-36
2024/01/29 10:36:31;;;;;;;13.40;8.25;;;2.60;99.90;;;;;;5015157;28;20493;-36
2024/01/29 10:39:03;;;;;;;12.18;9.20;;;2.60;99.90;;;;;;5030278;28;20040;-33
2024/01/29 10:41:31;;;;;;;10.82;9.02;;;2.70;99.90;;;;;;5028978;28;20506;-32
2024/01/29 10:43:59;;;;;;;;;;;2.60;99.90;;;;;;5026050;28;20407;-35
2024/01/29 10:46:26;;;;;;;10.93;8.15;;;2.70;99.90;;;;;;5026063;28;20272;-35
2024/01/29 10:48:53;;;;;;;12.43;8.30;;;2.80;99.90;;;;;;5034787;28;20761;-32
2024/01/29 10:51:22;;;;;;;13.32;9.07;;;3.00;99.90;;;;;;5030305;28;20052;-33
2024/01/29 10:53:49;;;;;;;11.68;8.48;;;3.10;99.90;;;;;;5031110;28;20041;-39
2024/01/29 10:56:16;;;;;;;12.27;8.38;;;3.40;99.90;;;;;;5026223;28;20030;-41
2024/01/29 10:58:42;;;;;;;11.10;7.50;;;3.70;99.90;;;;;;5024498;28;20368;-39
2024/01/29 11:01:10;;;;;;;11.57;8.52;;;3.80;99.90;;;;;;5029320;28;20532;-37
2024/01/29 11:03:37;;;;;;;9.23;7.28;;;3.70;99.90;;;;;;5026190;28;20103;-36
2024/01/29 11:06:15;;;;;;;11.10;7.75;;;3.60;99.90;;;;;;5020603;28;20437;-40
2024/01/29 11:08:48;;;;;;;12.18;7.60;;;3.90;99.90;;;;;;5025298;28;20028;-40
2024/01/29 11:11:14;;;;;;;7.75;6.40;;;4.10;99.90;;;;;;5023123;28;20426;-34
2024/01/29 11:13:41;;;;;;;8.32;6.18;;;4.20;99.90;;;;;;5034103;28;20120;-31
2024/01/29 11:16:07;;;;;;;7.50;5.10;;;4.40;99.90;;;;;;5025901;28;20383;-33
2024/01/29 11:18:34;;;;;;;8.80;6.03;;;4.60;99.90;;;;;;5027540;28;20032;-34
2024/01/29 11:21:00;;;;;;;9.73;6.90;;;4.60;99.90;;;;;;5026365;28;20090;-38
2024/01/29 11:23:28;;;;;;;11.70;7.90;;;4.60;99.90;;;;;;5022718;28;20025;-40
2024/01/29 11:25:54;;;;;;;8.75;6.20;;;4.80;99.90;;;;;;5029994;28;20060;-38
2024/01/29 11:28:24;;;;;;;6.88;5.40;;;4.70;99.90;;;;;;5029855;28;20464;-39
2024/01/29 11:30:50;;;;;;;10.13;5.75;;;4.70;99.90;;;;;;5030451;28;20042;-40
2024/01/29 11:33:18;;;;;;;10.48;6.03;;;4.70;99.90;;;;;;5029387;28;20321;-38
2024/01/29 11:35:45;;;;;;;6.30;5.00;;;4.70;99.90;;;;;;5021854;28;20025;-39
2024/01/29 11:38:13;;;;;;;5.57;4.85;;;4.70;99.90;;;;;;5026718;28;20033;-38
2024/01/29 11:40:42;;;;;;;8.10;5.30;;;4.90;99.90;;;;;;5024226;28;20030;-38
2024/01/29 11:43:15;;;;;;;10.70;5.50;;;5.00;99.90;;;;;;5029678;28;20022;-40
2024/01/29 11:45:43;;;;;;;5.07;4.30;;;5.00;99.90;;;;;;5028576;28;20033;-39
2024/01/29 11:48:10;;;;;;;5.47;4.53;;;5.10;99.90;;;;;;5035871;28;20052;-38
2024/01/29 11:50:40;;;;;;;7.03;4.43;;;5.20;99.90;;;;;;5031345;28;20057;-33
2024/01/29 11:53:09;;;;;;;4.93;3.45;;;5.30;99.90;;;;;;5026569;28;20064;-39
2024/01/29 11:55:35;;;;;;;5.00;3.97;;;5.30;99.90;;;;;;5026029;28;20040;-40
2024/01/29 11:58:01;;;;;;;8.18;3.95;;;5.50;99.90;;;;;;5028202;28;20034;-38
2024/01/29 12:00:28;;;;;;;5.32;4.25;;;5.50;99.90;;;;;;5021372;28;20029;-39
2024/01/29 12:02:53;;;;;;;5.85;4.10;;;5.60;99.90;;;;;;5029292;28;20112;-39
2024/01/29 12:05:19;;;;;;;6.22;3.78;;;5.60;99.90;;;;;;5015339;28;20112;-40
2024/01/29 12:07:46;;;;;;;4.90;4.03;;;5.70;99.90;;;;;;5027697;28;20063;-40
2024/01/29 12:10:12;;;;;;;5.65;3.63;;;5.80;99.90;;;;;;5030230;28;20574;-37
2024/01/29 12:12:38;;;;;;;5.35;3.95;;;5.90;99.90;;;;;;5029426;28;20033;-39
2024/01/29 12:15:06;;;;;;;4.22;3.75;;;6.00;99.90;;;;;;5029193;28;20033;-38
2024/01/29 12:17:32;;;;;;;4.00;3.40;;;6.10;99.90;;;;;;5028631;28;20382;-38
2024/01/29 12:19:58;;;;;;;6.03;3.92;;;6.20;99.90;;;;;;5028681;28;20084;-37
2024/01/29 12:22:24;;;;;;;5.07;3.35;;;6.30;99.90;;;;;;5027089;28;20025;-41
2024/01/29 12:24:50;;;;;;;5.22;3.30;;;6.40;99.90;;;;;;5029538;28;20498;-41
2024/01/29 12:27:17;;;;;;;4.35;3.25;;;6.40;99.90;;;;;;5024876;28;20140;-42
2024/01/29 12:29:45;;;;;;;4.18;2.78;;;6.50;99.90;;;;;;5024077;28;20030;-38
2024/01/29 12:32:12;;;;;;;4.80;3.20;;;6.60;99.90;;;;;;5026135;28;20029;-34
2024/01/29 12:34:45;;;;;;;5.15;3.42;;;6.60;99.90;;;;;;5008356;28;20029;-33
2024/01/29 12:37:21;;;;;;;4.15;3.50;;;6.70;99.90;;;;;;5030314;28;20879;-34
2024/01/29 12:39:52;;;;;;;5.75;3.58;;;6.70;99.90;;;;;;5020524;28;20058;-32
2024/01/29 12:42:19;;;;;;;5.00;3.20;;;6.80;99.90;;;;;;5036224;28;20540;-33